Minneapolis, Minnesota
Current Conditions -  °F | °C
As of 6:53 PM on Sunday 23 Nov 2014 (Local Time) from KMSP Reporting Station
Overcast Overcast  
Wind Chill: 32°   Ceiling: 4000
Heat Index: 39°   Visibility: 10mi
Dew Point: 35°   Wind: 12mph
Humidity: 86%   Direction: 300°WNW
Pressure: 29.38"   Gusts: NA
Location:  44.98°N, 93.26°W
Report Text: KMSP 240053Z 30010KT 10SM SCT012 OVC040 04/02 A2938 RMK AO2 SLP955 T00390017
Loading
Personal Weather Stations






























Interactive Weather Map New forecast layout! Learn more

10-Day Weather Forecast

Advertisements
Track Severe Weather on mobile